Time;durP1;ratioP1;P1;durP2;ratioP2;P2;SDS_P1;SDS_P2;PMS_P1;PMS_P2;Temp;Humidity;BMP_temperature;BMP_pressure;BME280_temperature;BME280_humidity;BME280_pressure;Samples;Min_cycle;Max_cycle;Signal;HPM_P1;HPM_P2
2021/10/25 00:00:15;;;;;;;4.95;2.25;;;;;;;20.09;42.35;101838.03;4993930;28;20030;-60
2021/10/25 00:02:41;;;;;;;5.53;2.22;;;;;;;20.09;42.16;101840.69;4994459;28;20563;-60
2021/10/25 00:05:06;;;;;;;4.40;2.33;;;;;;;20.07;42.27;101839.09;4994273;28;20046;-60
2021/10/25 00:07:32;;;;;;;3.78;2.22;;;;;;;20.05;42.12;101836.56;4994091;28;20039;-60
2021/10/25 00:09:57;;;;;;;3.65;2.10;;;;;;;20.05;42.29;101838.38;4993457;28;20038;-60
2021/10/25 00:12:26;;;;;;;3.80;2.10;;;;;;;20.03;42.12;101835.84;4994621;28;20030;-60
2021/10/25 00:14:52;;;;;;;4.20;2.30;;;;;;;20.00;42.20;101825.50;4994034;28;20034;-60
2021/10/25 00:17:21;;;;;;;4.07;2.30;;;;;;;20.00;42.00;101822.84;4993821;28;20038;-60
2021/10/25 00:19:46;;;;;;;5.15;2.22;;;;;;;19.98;42.15;101827.41;4993904;28;20038;-60
2021/10/25 00:22:14;;;;;;;4.68;2.30;;;;;;;19.96;41.99;101826.66;4993911;28;20022;-59
2021/10/25 00:24:39;;;;;;;3.83;2.17;;;;;;;19.96;42.30;101825.81;4993697;28;20035;-60
2021/10/25 00:27:05;;;;;;;4.65;2.15;;;;;;;19.94;42.22;101836.53;4993193;28;20020;-60
2021/10/25 00:29:30;;;;;;;4.90;2.20;;;;;;;19.94;42.21;101828.59;4993888;28;20058;-59
2021/10/25 00:31:56;;;;;;;3.90;1.95;;;;;;;19.93;42.07;101832.19;4994043;28;20022;-59
2021/10/25 00:34:22;;;;;;;4.30;2.20;;;;;;;19.91;42.24;101824.34;4993451;28;20038;-60
2021/10/25 00:36:48;;;;;;;3.67;2.15;;;;;;;19.91;42.32;101820.88;4992836;28;20034;-59
2021/10/25 00:39:13;;;;;;;5.22;2.20;;;;;;;19.89;42.25;101818.34;4993518;28;20023;-60
2021/10/25 00:41:39;;;;;;;3.70;2.15;;;;;;;19.88;42.19;101821.94;4993439;28;20026;-59
2021/10/25 00:44:04;;;;;;;4.25;2.25;;;;;;;19.87;42.14;101822.91;4993075;28;20076;-61
2021/10/25 00:46:30;;;;;;;3.97;2.00;;;;;;;19.86;42.35;101820.38;4993960;28;20050;-59
2021/10/25 00:48:55;;;;;;;3.63;2.03;;;;;;;19.85;42.28;101814.25;4993226;28;20041;-59
2021/10/25 00:51:20;;;;;;;4.43;2.20;;;;;;;19.84;42.10;101811.72;4993173;28;20077;-60
2021/10/25 00:53:46;;;;;;;4.13;1.95;;;;;;;19.84;42.16;101817.00;4993599;28;20031;-60
2021/10/25 00:56:11;;;;;;;4.93;2.38;;;;;;;19.83;42.01;101815.31;4992480;28;20053;-59
2021/10/25 00:58:37;;;;;;;3.90;1.98;;;;;;;19.81;41.96;101815.41;4993445;28;20046;-59
2021/10/25 01:01:03;;;;;;;3.65;1.80;;;;;;;19.80;41.71;101815.53;4993370;28;20026;-59
2021/10/25 01:03:29;;;;;;;3.55;1.98;;;;;;;19.80;42.17;101815.53;4992764;28;20367;-60
2021/10/25 01:05:55;;;;;;;3.65;1.90;;;;;;;19.78;42.03;101810.34;4993322;28;20023;-60
2021/10/25 01:08:24;;;;;;;4.00;2.20;;;;;;;19.77;42.00;101802.53;4993191;28;20034;-59
2021/10/25 01:10:50;;;;;;;4.10;1.88;;;;;;;19.76;42.19;101809.63;4993007;28;20030;-59
2021/10/25 01:13:16;;;;;;;4.65;2.38;;;;;;;19.74;41.84;101811.50;4992962;28;20037;-59
2021/10/25 01:15:42;;;;;;;4.28;2.28;;;;;;;19.74;42.06;101812.34;4993262;28;20351;-60
2021/10/25 01:18:07;;;;;;;4.30;2.13;;;;;;;19.74;41.81;101808.84;4992411;28;20030;-60
2021/10/25 01:20:32;;;;;;;4.47;2.00;;;;;;;19.73;41.98;101815.09;4992947;28;20489;-61
2021/10/25 01:23:00;;;;;;;4.60;2.00;;;;;;;19.72;41.85;101813.41;4992190;28;20110;-59
2021/10/25 01:25:27;;;;;;;4.63;2.05;;;;;;;19.71;41.81;101807.28;4993270;28;20038;-59
2021/10/25 01:27:54;;;;;;;4.05;2.08;;;;;;;19.70;42.06;101807.41;4993284;28;20026;-59
2021/10/25 01:30:20;;;;;;;4.03;1.98;;;;;;;19.69;42.18;101806.56;4992150;28;20327;-59
2021/10/25 01:32:47;;;;;;;3.45;1.88;;;;;;;19.68;42.22;101809.31;4992803;28;20049;-59
2021/10/25 01:35:13;;;;;;;3.67;2.00;;;;;;;19.68;42.09;101809.31;4992520;28;20425;-60
2021/10/25 01:37:39;;;;;;;6.05;2.20;;;;;;;19.67;42.06;101803.16;4992593;28;20026;-59
2021/10/25 01:40:06;;;;;;;4.18;2.00;;;;;;;19.67;41.88;101808.44;4992267;28;20070;-59
2021/10/25 01:42:32;;;;;;;3.58;1.88;;;;;;;19.66;42.08;101803.28;4993084;28;20096;-60
2021/10/25 01:44:57;;;;;;;3.88;2.10;;;;;;;19.66;41.91;101800.63;4992128;28;20029;-59
2021/10/25 01:47:24;;;;;;;3.70;2.20;;;;;;;19.64;41.97;101795.44;4992551;28;20038;-60
2021/10/25 01:49:49;;;;;;;3.70;1.83;;;;;;;19.64;41.89;101794.63;4992826;28;20088;-60
2021/10/25 01:52:15;;;;;;;3.33;1.88;;;;;;;19.63;41.80;101799.06;4991757;28;20141;-58
2021/10/25 01:54:41;;;;;;;3.90;1.88;;;;;;;19.63;41.84;101795.56;4992589;28;20096;-60
2021/10/25 01:57:09;;;;;;;4.05;1.88;;;;;;;19.62;41.93;101792.09;4992600;28;20073;-59
2021/10/25 01:59:40;;;;;;;4.47;1.80;;;;;;;19.61;42.13;101798.31;4992217;28;20052;-60
2021/10/25 02:02:06;;;;;;;3.85;1.90;;;;;;;19.60;42.11;101799.28;4992224;28;20022;-60
2021/10/25 02:04:31;;;;;;;4.07;1.90;;;;;;;19.60;42.07;101795.78;4992593;28;20031;-59
2021/10/25 02:06:57;;;;;;;4.25;1.80;;;;;;;19.58;42.06;101796.75;4991985;28;20042;-60
2021/10/25 02:09:22;;;;;;;3.65;1.80;;;;;;;19.57;42.21;101792.41;4992565;28;20019;-59
2021/10/25 02:11:48;;;;;;;3.50;1.90;;;;;;;19.55;41.96;101786.41;4992695;28;20058;-60
2021/10/25 02:14:14;;;;;;;3.42;1.65;;;;;;;19.55;42.18;101783.75;4991832;28;20023;-59
2021/10/25 02:16:40;;;;;;;4.57;2.20;;;;;;;19.55;42.08;101780.25;4992451;28;20035;-60
2021/10/25 02:19:05;;;;;;;2.95;1.65;;;;;;;19.54;42.13;101782.06;4992105;28;20022;-59
2021/10/25 02:21:30;;;;;;;3.75;1.90;;;;;;;19.53;42.22;101779.53;4992276;28;20038;-59
2021/10/25 02:23:56;;;;;;;3.40;1.80;;;;;;;19.53;42.50;101776.88;4992365;28;20034;-59
2021/10/25 02:26:21;;;;;;;3.20;1.80;;;;;;;19.53;42.22;101780.34;4992021;28;20080;-59
2021/10/25 02:28:47;;;;;;;3.73;1.90;;;;;;;19.53;42.13;101771.59;4992302;28;20122;-58
2021/10/25 02:31:12;;;;;;;3.63;1.80;;;;;;;19.53;42.45;101776.88;4992619;28;20732;-59
2021/10/25 02:33:38;;;;;;;3.63;1.70;;;;;;;19.53;42.24;101771.59;4991787;28;20558;-60
2021/10/25 02:36:06;;;;;;;3.17;1.60;;;;;;;19.52;42.36;101760.19;4991762;28;20053;-60
2021/10/25 02:38:32;;;;;;;4.30;1.80;;;;;;;19.52;42.30;101765.47;4992103;28;20520;-59
2021/10/25 02:40:57;;;;;;;3.75;1.77;;;;;;;19.52;42.57;101759.34;4991585;28;20034;-60
2021/10/25 02:43:22;;;;;;;3.72;1.80;;;;;;;19.51;42.50;101755.84;4992224;28;20355;-59
2021/10/25 02:45:48;;;;;;;3.40;1.70;;;;;;;19.50;42.30;101754.16;4992357;28;20065;-60
2021/10/25 02:48:13;;;;;;;3.70;2.03;;;;;;;19.50;42.56;101748.03;4991379;28;20050;-59
2021/10/25 02:50:39;;;;;;;4.43;1.80;;;;;;;19.49;42.38;101746.34;4992261;28;20108;-59
2021/10/25 02:53:14;;;;;;;4.03;1.88;;;;;;;19.50;42.37;101751.53;4992010;28;20039;-60
2021/10/25 02:55:39;;;;;;;4.32;1.75;;;;;;;19.49;42.58;101749.00;4991657;28;20441;-59
2021/10/25 02:58:05;;;;;;;3.50;1.50;;;;;;;19.47;42.51;101748.25;4991753;28;20481;-60
2021/10/25 03:00:30;;;;;;;3.75;1.85;;;;;;;19.47;42.37;101749.09;4995738;28;20014;-60
2021/10/25 03:02:56;;;;;;;5.10;1.90;;;;;;;19.47;42.45;101749.09;4995066;28;20058;-60
2021/10/25 03:05:22;;;;;;;3.67;1.90;;;;;;;19.46;42.54;101739.47;4995346;28;20026;-60
2021/10/25 03:07:48;;;;;;;3.70;1.40;;;;;;;19.46;42.56;101736.84;4995691;28;20081;-60
2021/10/25 03:10:13;;;;;;;4.57;1.85;;;;;;;19.46;42.57;101734.19;4994909;28;20038;-59
2021/10/25 03:12:39;;;;;;;3.60;1.75;;;;;;;19.46;42.41;101734.19;4995394;28;20085;-60
2021/10/25 03:15:06;;;;;;;2.88;1.65;;;;;;;19.46;42.74;101733.34;4995112;28;20040;-61
2021/10/25 03:17:32;;;;;;;5.32;1.70;;;;;;;19.45;42.62;101735.13;4994718;28;20080;-60
2021/10/25 03:19:58;;;;;;;3.95;1.83;;;;;;;19.45;42.71;101740.41;4994943;28;20038;-59
2021/10/25 03:22:24;;;;;;;2.88;1.50;;;;;;;19.45;42.58;101739.59;4995441;28;20038;-60
2021/10/25 03:24:50;;;;;;;2.72;1.48;;;;;;;19.44;42.46;101735.25;4995060;28;20039;-60
2021/10/25 03:27:15;;;;;;;3.67;1.55;;;;;;;19.44;42.47;101736.13;4994914;28;20745;-60
2021/10/25 03:29:41;;;;;;;3.42;1.70;;;;;;;19.45;42.62;101729.00;4994588;28;20101;-60
2021/10/25 03:32:06;;;;;;;3.50;1.60;;;;;;;19.45;42.54;101736.94;4994628;28;20470;-58
2021/10/25 03:34:32;;;;;;;4.20;1.88;;;;;;;19.46;42.84;101733.34;4995121;28;20038;-60
2021/10/25 03:36:57;;;;;;;4.05;1.70;;;;;;;19.48;42.77;101726.97;4994409;28;20104;-59
2021/10/25 03:39:25;;;;;;;4.22;1.67;;;;;;;19.53;42.77;101724.84;4995351;28;20441;-60
2021/10/25 03:41:53;;;;;;;4.10;1.65;;;;;;;19.60;42.53;101729.69;4995007;28;20462;-59
2021/10/25 03:44:24;;;;;;;2.45;1.42;;;;;;;19.65;42.71;101727.56;4994031;28;20491;-59
2021/10/25 03:49:41;;;;;;;3.17;1.50;;;;;;;19.71;42.57;101722.66;4995101;28;20363;-60
2021/10/25 04:01:25;;;;;;;3.50;1.52;;;;;;;19.79;41.94;101716.84;4969166;28;20060;-59
2021/10/25 04:27:58;;;;;;;2.58;1.30;;;;;;;19.81;42.22;101727.28;4993786;28;20061;-59
2021/10/25 04:30:24;;;;;;;3.33;1.52;;;;;;;19.81;42.18;101722.00;4993947;28;20042;-59
2021/10/25 04:32:49;;;;;;;4.03;1.60;;;;;;;19.80;42.24;101725.59;4993595;28;20046;-60
2021/10/25 04:35:16;;;;;;;3.15;1.55;;;;;;;19.80;42.38;101723.78;4993534;28;20030;-59
2021/10/25 04:37:41;;;;;;;3.40;1.60;;;;;;;19.79;42.19;101721.25;4993852;28;20108;-60
2021/10/25 04:40:08;;;;;;;4.60;1.70;;;;;;;19.79;42.23;101714.19;4992907;28;20542;-59
2021/10/25 04:42:33;;;;;;;2.95;1.33;;;;;;;19.80;42.28;101720.31;4993611;28;20037;-59
2021/10/25 04:44:59;;;;;;;2.80;1.40;;;;;;;19.79;42.24;101723.91;4993079;28;20019;-59
2021/10/25 04:47:25;;;;;;;2.85;1.40;;;;;;;19.79;42.36;101716.84;4993413;28;20030;-60
2021/10/25 04:49:50;;;;;;;2.92;1.25;;;;;;;19.83;42.46;101722.72;4993421;28;20382;-60
2021/10/25 04:52:15;;;;;;;2.72;1.30;;;;;;;19.86;42.49;101714.56;4993615;28;20034;-59
2021/10/25 04:54:44;;;;;;;3.40;1.50;;;;;;;19.89;42.57;101723.09;4993009;28;20078;-59
2021/10/25 04:57:12;;;;;;;3.22;1.30;;;;;;;19.89;42.54;101711.69;4992993;28;20038;-59
2021/10/25 04:59:37;;;;;;;3.70;1.67;;;;;;;19.91;42.46;101715.88;4993413;28;20022;-59
2021/10/25 05:02:03;;;;;;;3.97;1.27;;;;;;;19.92;42.35;101720.22;4992889;28;20029;-60
2021/10/25 05:04:29;;;;;;;4.20;1.48;;;;;;;19.93;42.24;101710.47;4993413;28;20359;-59
2021/10/25 05:06:55;;;;;;;3.85;1.35;;;;;;;19.93;42.04;101710.47;4993515;28;20041;-59
2021/10/25 05:09:20;;;;;;;2.88;1.48;;;;;;;19.94;42.21;101707.72;4992775;28;20022;-60
2021/10/25 05:11:45;;;;;;;3.13;1.30;;;;;;;19.93;41.97;101706.06;4993088;28;20049;-60
2021/10/25 05:14:10;;;;;;;2.60;1.30;;;;;;;19.93;42.03;101706.06;4992761;28;20276;-59
2021/10/25 05:16:36;;;;;;;3.40;1.60;;;;;;;19.93;42.02;101708.72;4993024;28;20382;-59
2021/10/25 05:19:01;;;;;;;3.17;1.52;;;;;;;19.93;42.20;101705.19;4992883;28;20581;-60
2021/10/25 05:21:26;;;;;;;3.17;1.38;;;;;;;19.91;42.13;101707.94;4993052;28;20022;-59
2021/10/25 05:23:52;;;;;;;2.75;1.48;;;;;;;19.92;42.14;101704.34;4992910;28;20084;-60
2021/10/25 05:26:17;;;;;;;2.88;1.40;;;;;;;19.96;42.69;101689.09;4992628;28;20466;-60
2021/10/25 05:28:43;;;;;;;3.10;1.20;;;;;;;20.06;42.74;101695.38;4993082;28;20031;-60
2021/10/25 05:31:12;;;;;;;3.33;1.38;;;;;;;20.16;43.04;101692.88;4992230;28;20033;-60
2021/10/25 05:33:39;;;;;;;2.13;1.17;;;;;;;20.26;43.14;101691.19;4993075;28;20386;-60
2021/10/25 05:36:07;;;;;;;2.85;1.38;;;;;;;20.34;42.93;101695.06;4991931;28;20422;-60
2021/10/25 05:38:33;;;;;;;3.22;1.25;;;;;;;20.40;42.90;101691.94;4992811;28;20038;-60
2021/10/25 05:40:58;;;;;;;3.72;1.20;;;;;;;20.46;42.68;101687.00;4992680;28;20023;-60
2021/10/25 05:43:24;;;;;;;3.20;1.33;;;;;;;20.54;42.38;101685.59;4992388;28;20388;-61
2021/10/25 05:45:49;;;;;;;3.22;1.23;;;;;;;20.59;42.43;101686.88;4992939;28;20026;-60
2021/10/25 05:48:15;;;;;;;2.77;1.23;;;;;;;20.65;42.25;101686.44;4992477;28;20065;-59
2021/10/25 05:50:41;;;;;;;3.80;1.35;;;;;;;20.67;42.02;101685.50;4992417;28;20280;-60
2021/10/25 05:53:08;;;;;;;3.58;1.50;;;;;;;20.67;42.17;101685.50;4992298;28;20035;-61
2021/10/25 05:55:34;;;;;;;3.45;1.35;;;;;;;20.63;42.30;101682.19;4992373;28;20486;-60
2021/10/25 05:57:59;;;;;;;3.05;1.40;;;;;;;20.67;42.32;101682.84;4991856;28;20041;-62
2021/10/25 06:00:28;;;;;;;2.78;1.30;;;;;;;20.70;42.29;101679.94;4992723;28;20097;-61
2021/10/25 06:02:55;;;;;;;3.08;1.20;;;;;;;20.69;42.43;101676.44;4992940;28;20031;-61
2021/10/25 06:05:22;;;;;;;3.13;1.20;;;;;;;20.71;42.49;101679.84;4991965;28;20030;-63
2021/10/25 06:07:48;;;;;;;2.80;1.40;;;;;;;20.73;42.37;101675.25;4992675;28;20034;-62
2021/10/25 06:10:14;;;;;;;2.67;1.17;;;;;;;20.75;42.43;101675.97;4992371;28;20030;-61
2021/10/25 06:12:44;;;;;;;3.17;1.42;;;;;;;20.75;42.61;101678.59;4992054;28;20061;-62
2021/10/25 06:15:16;;;;;;;2.47;1.30;;;;;;;20.75;42.57;101675.13;4992054;28;20038;-62
2021/10/25 06:20:17;;;;;;;3.95;1.40;;;;;;;20.76;42.69;101666.19;4991588;28;20441;-61
2021/10/25 06:22:43;;;;;;;4.30;1.20;;;;;;;20.79;42.70;101673.91;4992499;28;20034;-63
2021/10/25 06:25:12;;;;;;;2.97;1.10;;;;;;;20.81;42.53;101675.47;4992150;28;20405;-63
2021/10/25 06:27:37;;;;;;;2.33;1.20;;;;;;;20.83;42.67;101675.34;4991958;28;20030;-59
2021/10/25 06:30:06;;;;;;;2.20;1.00;;;;;;;20.84;42.74;101680.53;4992262;28;20038;-61
2021/10/25 06:32:32;;;;;;;2.70;1.20;;;;;;;20.83;42.56;101684.13;4992205;28;20070;-63
2021/10/25 06:34:59;;;;;;;3.63;1.40;;;;;;;20.84;42.71;101685.81;4994848;28;20030;-60
2021/10/25 06:37:32;;;;;;;2.50;1.23;;;;;;;20.86;42.73;101684.88;4995934;28;20110;-61
2021/10/25 06:39:57;;;;;;;2.20;1.00;;;;;;;20.89;42.62;101684.63;4995471;28;20432;-61
2021/10/25 06:42:25;;;;;;;2.63;1.10;;;;;;;20.91;42.72;101693.28;4995957;28;20022;-62
2021/10/25 06:44:59;;;;;;;3.08;1.40;;;;;;;20.94;42.63;101693.03;4995971;28;20034;-62
2021/10/25 06:47:24;;;;;;;2.70;1.08;;;;;;;20.97;42.57;101696.28;4995471;28;20026;-62
2021/10/25 06:49:51;;;;;;;2.30;1.17;;;;;;;20.99;42.46;101693.50;4995496;28;20544;-61
2021/10/25 06:52:19;;;;;;;3.28;1.45;;;;;;;21.01;41.83;101697.75;4995379;28;20110;-63
2021/10/25 06:54:47;;;;;;;3.10;1.30;;;;;;;21.01;42.32;101692.44;4995228;28;20874;-61
2021/10/25 06:57:13;;;;;;;3.60;1.40;;;;;;;21.02;42.39;101699.41;4995402;28;20401;-61
2021/10/25 06:59:38;;;;;;;2.67;1.05;;;;;;;21.04;42.42;101686.03;4995925;28;20050;-63
2021/10/25 07:02:03;;;;;;;3.20;1.23;;;;;;;21.01;42.52;101687.13;4994946;28;20062;-61
2021/10/25 07:04:29;;;;;;;5.13;1.20;;;;;;;21.07;42.22;101696.38;4995425;28;20037;-61
2021/10/25 07:06:56;;;;;;;2.80;1.15;;;;;;;21.11;42.28;101696.97;4995665;28;20825;-60
2021/10/25 07:09:24;;;;;;;3.08;1.20;;;;;;;21.14;42.08;101694.94;4994919;28;20038;-61
2021/10/25 07:11:49;;;;;;;2.90;1.00;;;;;;;21.17;42.17;101692.03;4995339;28;20043;-61
2021/10/25 07:14:21;;;;;;;2.95;1.20;;;;;;;21.22;41.95;101696.09;4995461;28;20038;-62
2021/10/25 07:17:06;;;;;;;2.30;1.20;;;;;;;21.23;41.89;101695.97;4994793;28;20111;-62
2021/10/25 08:00:47;;;;;;;2.50;1.10;;;;;;;21.19;42.37;101718.44;4996742;28;20458;-64
2021/10/25 08:06:05;;;;;;;2.83;1.23;;;;;;;21.31;42.08;101725.38;4999427;28;20093;-63
2021/10/25 08:11:04;;;;;;;3.15;1.20;;;;;;;21.37;41.99;101724.88;4993749;28;20034;-63
2021/10/25 08:13:37;;;;;;;2.92;1.23;;;;;;;21.42;42.11;101721.00;4994918;28;20088;-60
2021/10/25 08:16:12;;;;;;;3.40;1.15;;;;;;;21.43;41.97;101726.19;4994550;28;20022;-64
2021/10/25 08:21:14;;;;;;;4.72;1.33;;;;;;;21.32;42.20;101729.72;4993870;28;20031;-62
2021/10/25 08:23:40;;;;;;;3.75;1.30;;;;;;;21.36;42.10;101719.69;4994756;28;20018;-62
2021/10/25 08:26:08;;;;;;;5.38;1.50;;;;;;;21.42;42.14;101723.66;4994894;28;20030;-61
2021/10/25 08:28:33;;;;;;;4.90;1.25;;;;;;;21.44;42.14;101721.72;4995026;28;20026;-60
2021/10/25 08:30:59;;;;;;;3.72;1.40;;;;;;;21.49;42.13;101716.91;4994692;28;20470;-60
2021/10/25 08:33:47;;;;;;;3.30;1.35;;;;;;;21.46;42.10;101717.13;4993335;28;20143;-62
2021/10/25 08:36:25;;;;;;;4.30;1.60;;;;;;;21.34;42.22;101725.13;4993725;28;20031;-62
2021/10/25 08:41:36;;;;;;;3.55;1.30;;;;;;;21.18;42.46;101717.56;4994603;28;20037;-60
2021/10/25 08:44:13;;;;;;;4.30;1.20;;;;;;;21.21;42.58;101711.19;4994249;28;20033;-61
2021/10/25 08:46:49;;;;;;;2.85;1.20;;;;;;;21.25;42.43;101714.41;4993641;28;20041;-61
2021/10/25 08:49:15;;;;;;;3.67;1.17;;;;;;;21.28;42.49;101711.53;4993717;28;20076;-61
2021/10/25 08:51:50;;;;;;;3.60;1.40;;;;;;;21.32;42.39;101712.97;4994081;28;20022;-62
2021/10/25 08:54:18;;;;;;;3.38;1.20;;;;;;;21.36;42.31;101709.94;4993492;28;20437;-61
2021/10/25 08:56:43;;;;;;;2.45;1.10;;;;;;;21.40;42.35;101712.34;4992906;28;20046;-60
2021/10/25 08:59:08;;;;;;;2.63;1.00;;;;;;;21.46;42.22;101709.16;4993365;28;20516;-61
2021/10/25 09:01:34;;;;;;;4.90;1.30;;;;;;;21.47;42.09;101705.56;4993011;28;20138;-61
2021/10/25 09:04:16;;;;;;;3.22;1.25;;;;;;;21.45;42.39;101700.38;4993442;28;20291;-61
2021/10/25 09:06:56;;;;;;;4.72;1.10;;;;;;;21.47;42.44;101711.69;4992955;28;20038;-62
2021/10/25 09:09:23;;;;;;;3.72;1.25;;;;;;;21.50;42.07;101705.34;4993004;28;20034;-61
2021/10/25 09:12:06;;;;;;;3.17;1.23;;;;;;;21.42;42.22;101705.94;4993328;28;20050;-61
2021/10/25 09:14:33;;;;;;;3.77;1.50;;;;;;;21.41;42.48;101703.41;4993018;28;20023;-61
2021/10/25 09:17:07;;;;;;;4.10;1.45;;;;;;;21.36;42.71;101707.28;4992703;28;20045;-64
2021/10/25 09:19:35;;;;;;;4.00;1.30;;;;;;;21.34;42.72;101703.91;4993484;28;20042;-60
2021/10/25 09:22:27;;;;;;;3.13;1.45;;;;;;;21.35;42.77;101702.94;4992812;28;20037;-61
2021/10/25 09:24:53;;;;;;;4.28;1.40;;;;;;;21.33;42.72;101698.72;4992234;28;20038;-61
2021/10/25 09:27:40;;;;;;;2.90;1.20;;;;;;;21.28;42.88;101692.97;4993681;28;20034;-62
2021/10/25 09:30:15;;;;;;;3.92;1.42;;;;;;;21.26;43.05;101701.03;4992873;28;20023;-60
2021/10/25 09:32:42;;;;;;;2.67;1.08;;;;;;;21.25;43.00;101702.00;4994092;28;20038;-60
2021/10/25 09:35:27;;;;;;;3.90;1.40;;;;;;;21.23;43.01;101698.63;4994144;28;20427;-60
2021/10/25 09:37:58;;;;;;;4.90;1.30;;;;;;;21.22;43.26;101693.47;4992272;28;20039;-61
2021/10/25 09:40:37;;;;;;;3.97;1.45;;;;;;;21.19;43.27;101694.56;4993626;28;20029;-61
2021/10/25 09:43:20;;;;;;;3.22;1.13;;;;;;;21.19;43.38;101700.69;4992459;28;20042;-62
2021/10/25 09:50:54;;;;;;;3.15;1.30;;;;;;;21.41;43.11;101690.16;4993742;28;20101;-64
2021/10/25 09:53:34;;;;;;;3.95;1.10;;;;;;;21.46;43.12;101693.25;4993057;28;20133;-64
2021/10/25 09:56:00;;;;;;;3.75;1.20;;;;;;;21.51;43.12;101691.94;4993732;28;20046;-63
2021/10/25 09:58:33;;;;;;;2.83;1.27;;;;;;;21.50;42.76;101692.06;4991408;28;20049;-65
2021/10/25 10:00:59;;;;;;;3.00;1.17;;;;;;;21.52;42.81;101698.94;4992888;28;20478;-62
2021/10/25 10:03:25;;;;;;;2.65;1.15;;;;;;;21.52;42.94;101693.66;4992729;28;20030;-64
2021/10/25 10:05:50;;;;;;;2.30;1.05;;;;;;;21.54;42.65;101693.53;4992615;28;20042;-63
2021/10/25 10:08:17;;;;;;;2.88;1.20;;;;;;;21.54;43.02;101698.81;4995057;28;20030;-63
2021/10/25 10:10:43;;;;;;;2.97;1.10;;;;;;;21.56;42.97;101691.56;4996694;28;20034;-63
2021/10/25 10:13:12;;;;;;;2.63;1.20;;;;;;;21.56;42.93;101694.22;4996705;28;20062;-65
2021/10/25 10:15:41;;;;;;;3.78;1.30;;;;;;;21.56;42.88;101696.88;4996867;28;20050;-62
2021/10/25 10:18:17;;;;;;;4.53;1.45;;;;;;;21.57;43.01;101687.97;4996335;28;20041;-62
2021/10/25 10:20:46;;;;;;;4.30;1.20;;;;;;;21.52;42.99;101684.84;4996832;28;20030;-62
2021/10/25 10:23:16;;;;;;;2.90;1.27;;;;;;;21.50;43.07;101690.25;4996371;28;20044;-62
2021/10/25 10:25:54;;;;;;;4.00;1.13;;;;;;;21.44;43.30;101689.91;4996224;28;20030;-66
2021/10/25 10:28:35;;;;;;;3.88;1.30;;;;;;;21.34;43.45;101685.34;4996223;28;20393;-61
2021/10/25 10:31:13;;;;;;;3.28;1.20;;;;;;;21.36;43.27;101695.81;4996729;28;20030;-63
2021/10/25 10:33:40;;;;;;;3.72;1.48;;;;;;;21.34;43.46;101690.66;4996264;28;20034;-62
2021/10/25 10:36:33;;;;;;;2.67;1.20;;;;;;;21.28;43.74;101687.66;4996082;28;20030;-62
2021/10/25 10:39:11;;;;;;;2.72;1.20;;;;;;;21.28;43.79;101696.44;4995476;28;20052;-63
2021/10/25 10:41:43;;;;;;;4.43;1.27;;;;;;;21.39;43.55;101703.53;4995885;28;20034;-65
2021/10/25 10:44:16;;;;;;;3.38;1.15;;;;;;;21.42;43.47;101692.69;4995942;28;20109;-67
2021/10/25 10:46:52;;;;;;;2.20;1.00;;;;;;;21.46;43.37;101701.22;4995569;28;20076;-68
2021/10/25 10:49:33;;;;;;;2.10;0.90;;;;;;;21.51;43.32;101697.25;4995591;28;20046;-64
2021/10/25 10:52:17;;;;;;;3.08;1.23;;;;;;;21.53;43.17;101689.19;4995907;28;20053;-65
2021/10/25 10:57:27;;;;;;;2.60;1.10;;;;;;;21.55;43.19;101696.06;4995589;28;20502;-68
2021/10/25 10:59:59;;;;;;;3.22;1.10;;;;;;;21.53;43.55;101690.00;4995735;28;20471;-61
2021/10/25 11:02:25;;;;;;;4.13;1.27;;;;;;;21.59;43.41;101695.78;4995397;28;20034;-60
2021/10/25 11:04:50;;;;;;;2.42;1.00;;;;;;;21.62;43.46;101690.22;4996137;28;20498;-60
2021/10/25 11:07:15;;;;;;;3.38;1.30;;;;;;;21.65;43.48;101693.47;4995073;28;20509;-61
2021/10/25 11:09:41;;;;;;;2.75;1.13;;;;;;;21.67;43.46;101690.69;4996089;28;20037;-58
2021/10/25 11:12:12;;;;;;;2.97;1.10;;;;;;;21.68;43.40;101690.56;4995654;28;20034;-61
2021/10/25 11:14:39;;;;;;;3.28;1.50;;;;;;;21.66;43.28;101684.53;4995554;28;20030;-60
2021/10/25 11:20:05;;;;;;;4.68;1.30;;;;;;;21.52;43.64;101677.75;4990432;28;20150;-60
2021/10/25 11:22:33;;;;;;;2.88;1.20;;;;;;;21.54;43.67;101677.59;4994979;28;20422;-60
2021/10/25 11:25:01;;;;;;;2.60;1.10;;;;;;;21.56;43.65;101673.84;4995318;28;20110;-61
2021/10/25 11:27:36;;;;;;;4.07;1.30;;;;;;;21.54;43.77;101669.66;4995273;28;20382;-61
2021/10/25 11:30:19;;;;;;;4.00;1.23;;;;;;;21.53;43.78;101667.97;4994679;28;20074;-64
2021/10/25 11:32:45;;;;;;;3.03;1.40;;;;;;;21.51;43.77;101654.00;4995655;28;20033;-61
2021/10/25 11:35:13;;;;;;;2.88;0.98;;;;;;;21.45;44.01;101667.72;4994252;28;20512;-60
2021/10/25 11:37:50;;;;;;;2.75;1.20;;;;;;;21.46;44.06;101669.38;4994724;28;20066;-61
2021/10/25 11:40:20;;;;;;;3.60;1.00;;;;;;;21.51;44.01;101673.38;4994802;28;20097;-62
2021/10/25 11:42:48;;;;;;;2.78;1.10;;;;;;;21.56;43.96;101667.72;4994432;28;20109;-61
2021/10/25 11:45:17;;;;;;;4.18;1.50;;;;;;;21.58;43.74;101665.75;4994446;28;20105;-61
2021/10/25 11:47:50;;;;;;;2.80;1.20;;;;;;;21.61;43.64;101662.84;4994803;28;20386;-60
2021/10/25 11:50:25;;;;;;;3.85;1.27;;;;;;;21.62;43.66;101653.94;4994285;28;20042;-61
2021/10/25 11:52:59;;;;;;;2.75;1.40;;;;;;;21.65;43.70;101644.88;4995003;28;20129;-62
2021/10/25 11:55:30;;;;;;;3.42;1.00;;;;;;;21.64;43.25;101633.41;4996125;28;20402;-62
2021/10/25 11:58:10;;;;;;;2.63;1.33;;;;;;;21.65;43.47;101635.13;4994893;28;20038;-62
2021/10/25 12:00:43;;;;;;;3.35;1.30;;;;;;;21.68;43.50;101642.81;4994850;28;20033;-61
2021/10/25 12:03:12;;;;;;;3.63;1.20;;;;;;;21.68;43.28;101634.84;4993965;28;20473;-62
2021/10/25 12:05:39;;;;;;;2.47;1.20;;;;;;;21.67;43.31;101638.47;4995093;28;20038;-62
2021/10/25 12:08:08;;;;;;;2.55;1.23;;;;;;;21.68;43.49;101636.66;4994521;28;20081;-61
2021/10/25 12:10:37;;;;;;;2.83;1.10;;;;;;;21.65;43.73;101626.28;4994025;28;20137;-60
2021/10/25 12:13:06;;;;;;;3.25;1.20;;;;;;;21.68;44.36;101634.00;4993901;28;20033;-63
2021/10/25 12:15:34;;;;;;;2.40;1.00;;;;;;;21.69;43.80;101633.03;4994660;28;20054;-62
2021/10/25 12:18:02;;;;;;;2.58;0.90;;;;;;;21.71;43.65;101633.75;4993741;28;20034;-61
2021/10/25 12:20:35;;;;;;;3.28;1.00;;;;;;;21.69;43.61;101630.38;4994457;28;20034;-61
2021/10/25 12:23:03;;;;;;;3.08;1.30;;;;;;;21.66;43.63;101639.44;4994108;28;20070;-61
2021/10/25 12:25:38;;;;;;;3.22;1.00;;;;;;;21.64;43.54;101630.78;4993618;28;20022;-61
2021/10/25 12:28:17;;;;;;;3.20;1.05;;;;;;;21.72;43.25;101633.63;4994047;28;20030;-60
2021/10/25 12:30:42;;;;;;;2.78;1.20;;;;;;;21.80;43.48;101629.47;4993915;28;20027;-63
2021/10/25 12:33:07;;;;;;;3.47;1.10;;;;;;;21.79;43.36;101622.50;4992976;28;20521;-60
2021/10/25 12:35:39;;;;;;;3.75;1.20;;;;;;;21.81;43.50;101633.81;4995318;28;20042;-61
2021/10/25 12:38:18;;;;;;;2.20;1.10;;;;;;;21.82;43.59;101631.03;4993744;28;20030;-61
2021/10/25 12:40:49;;;;;;;3.85;1.27;;;;;;;21.84;43.35;101625.59;4994846;28;20137;-62
2021/10/25 12:43:16;;;;;;;2.65;1.10;;;;;;;21.86;43.39;101627.16;4993783;28;20050;-60
2021/10/25 12:45:55;;;;;;;2.47;1.20;;;;;;;21.90;43.40;101617.09;4993463;28;20065;-62
2021/10/25 12:48:21;;;;;;;1.92;1.00;;;;;;;21.99;43.45;101616.31;4993726;28;20026;-62
2021/10/25 12:50:50;;;;;;;2.72;1.23;;;;;;;22.04;43.09;101626.53;4994424;28;20109;-61
2021/10/25 12:53:28;;;;;;;2.85;1.30;;;;;;;22.06;43.32;101621.94;5110454;27;20362;-61
2021/10/25 12:55:55;;;;;;;2.47;1.00;;;;;;;22.07;43.27;101621.81;5110550;28;20028;-62
2021/10/25 12:58:22;;;;;;;2.55;1.20;;;;;;;22.09;42.97;101617.19;5110425;28;20090;-62
2021/10/25 13:00:48;;;;;;;2.95;1.17;;;;;;;22.10;42.98;101618.88;5109709;28;20020;-62
2021/10/25 13:03:14;;;;;;;3.42;1.20;;;;;;;22.09;43.08;101627.81;5110098;28;20031;-62
2021/10/25 13:05:43;;;;;;;3.60;1.10;;;;;;;22.05;42.96;101626.41;5110303;28;20098;-61
2021/10/25 13:08:09;;;;;;;1.75;0.90;;;;;;;22.00;43.11;101619.81;5109416;28;20056;-61
2021/10/25 13:10:36;;;;;;;2.05;0.88;;;;;;;21.96;43.23;101619.25;5110403;28;20118;-61